Hovedside
METAR-TAF:

METAR-TAF

Lufthavner :

Jakutsk, Russland

breddegrad: 62-01N, lengdegrad: 129-43E, høyde over havet: 103 m

Gjeldene værobservasjon

Denne rapporten ble laget for 47 minutter siden, klokken 16:30 UTC
Vind 2 kt fra Vest-nordvest
Temperatur 8°C
Luftfuktighet 93%
Trykk 1006 hPa
Sikt: 5000 m
dis

METAR: UEEE 231630Z 30001MPS 5000 BR NSC 08/07 Q1006 R23L/09//60 NOSIG RMK QFE746

Tid: 02:17 (17:17 UTC)

Varsel

Denne rapporten ble laget for 1 time og 17 minutter siden, klokken 16:00 UTC
Varsel gyldig fra 23. klokken 15 UTC til 24. klokken 21 UTC
Vind 2 kt fra skiftende retning
Sikt: 2100 m
dis
Midlertidig
fra 23. klokken 15 UTC til 24. klokken 01 UTC
Sikt: 0400 m
i en høyde av 300 ft
tåke
Fra 24. klokken 0100 UTC
Vind 6 kt fra Sør-sørvest
Sikt 10 km eller mer
ingen skyer under 1500 m og ingen bygeskyer

TAF: UEEE 231600Z 2315/2421 VRB01MPS 2100 BR NSC TEMPO 2315/2401 0400 FG VV003 NSC FM240100 20003MPS CAVOK

Værobservasjoner og værvarsel for over 4000 flyplasser (METAR- og TAF-rapporter).

Tilgjengelige stasjoner er representert av de røde og gule prikkene på kartet.

Hold musepekeren over prikken for å se navnet på stasjonen.

Klikk så for å se værobservasjoner og -varsler.

For å forandre kartet kan du klikke på den grønne knappen med svart kryss for å zoome inn, på den grønne knappen med strek for å zoome ut, eller på de grønne pilene for å se tilstøtende kart.


METAR-TAF: